createdAt,value
2023-04-12T00:02:18.698Z,96773.34
2023-04-12T00:04:45.505Z,96771.59
2023-04-12T00:07:12.610Z,96776.69
2023-04-12T00:09:39.461Z,96771.25
2023-04-12T00:12:06.637Z,96760.94
2023-04-12T00:14:33.446Z,96759.19
2023-04-12T00:17:00.174Z,96763.19
2023-04-12T00:19:27.885Z,96763.53
2023-04-12T00:21:54.741Z,96756.81
2023-04-12T00:24:21.382Z,96757.81
2023-04-12T00:26:48.223Z,96760.34
2023-04-12T00:29:16.447Z,96750.00
2023-04-12T00:31:43.173Z,96757.16
2023-04-12T00:34:10.025Z,96746.97
2023-04-12T00:36:36.714Z,96755.72
2023-04-12T00:39:03.346Z,96745.53
2023-04-12T00:41:30.129Z,96749.00
2023-04-12T00:43:57.063Z,96752.06
2023-04-12T00:46:24.321Z,96750.78
2023-04-12T00:48:51.338Z,96749.03
2023-04-12T00:51:18.465Z,96751.75
2023-04-12T00:53:46.046Z,96744.59
2023-04-12T00:56:12.966Z,96754.94
2023-04-12T00:58:39.639Z,96751.47
2023-04-12T01:01:06.601Z,96741.78
2023-04-12T01:03:33.769Z,96741.94
2023-04-12T01:06:09.647Z,96752.91
2023-04-12T01:08:46.693Z,96746.72
2023-04-12T01:11:16.938Z,96759.63
2023-04-12T01:13:56.044Z,96741.00
2023-04-12T01:16:36.006Z,96755.00
2023-04-12T01:19:11.904Z,96745.28
2023-04-12T01:21:53.945Z,96755.47
2023-04-12T01:24:31.923Z,96737.19
2023-04-12T01:27:01.930Z,96745.78
2023-04-12T01:29:30.374Z,96752.47
2023-04-12T01:32:02.699Z,96745.31
2023-04-12T01:34:41.645Z,96731.31
2023-04-12T01:37:09.914Z,96752.47
2023-04-12T01:39:36.755Z,96740.56
2023-04-12T01:42:04.530Z,96723.22
2023-04-12T01:44:31.575Z,96738.16
2023-04-12T01:46:58.946Z,96745.16
2023-04-12T01:49:32.490Z,96723.22
2023-04-12T01:52:08.437Z,96738.00
2023-04-12T01:54:41.705Z,96745.94
2023-04-12T01:57:09.739Z,96760.13
2023-04-12T01:59:42.240Z,96757.88
2023-04-12T02:02:10.410Z,96760.25
2023-04-12T02:04:38.622Z,96752.47
2023-04-12T02:07:05.844Z,96768.38
2023-04-12T02:09:38.513Z,96750.72
2023-04-12T02:12:06.960Z,96749.31
2023-04-12T02:14:34.073Z,96748.50
2023-04-12T02:17:02.668Z,96756.59
2023-04-12T02:19:29.576Z,96751.53
2023-04-12T02:21:57.318Z,96739.41
2023-04-12T02:24:24.169Z,96743.72
2023-04-12T02:26:51.087Z,96743.91
2023-04-12T02:29:18.202Z,96741.00
2023-04-12T02:31:44.851Z,96746.25
2023-04-12T02:34:13.587Z,96747.38
2023-04-12T02:36:40.304Z,96744.66
2023-04-12T02:39:07.945Z,96749.13
2023-04-12T02:41:34.940Z,96754.22
2023-04-12T02:44:01.821Z,96750.72
2023-04-12T02:46:28.774Z,96749.94
2023-04-12T02:48:55.649Z,96746.59
2023-04-12T02:51:22.408Z,96748.19
2023-04-12T02:53:49.251Z,96742.59
2023-04-12T02:56:19.291Z,96729.88
2023-04-12T02:58:46.408Z,96739.59
2023-04-12T03:01:13.507Z,96740.53
2023-04-12T03:03:40.883Z,96738.63
2023-04-12T03:06:09.521Z,96748.50
2023-04-12T03:08:36.509Z,96752.31
2023-04-12T03:11:03.211Z,96738.31
2023-04-12T03:13:37.935Z,96751.19
2023-04-12T03:16:23.804Z,96757.41
2023-04-12T03:18:51.414Z,96738.34
2023-04-12T03:21:18.524Z,96752.31
2023-04-12T03:23:45.595Z,96721.78
2023-04-12T03:26:12.347Z,96731.97
2023-04-12T03:28:39.230Z,96745.00
2023-04-12T03:31:06.257Z,96733.22
2023-04-12T03:33:32.937Z,96731.81
2023-04-12T03:35:59.713Z,96729.41
2023-04-12T03:38:26.491Z,96741.03
2023-04-12T03:40:53.222Z,96737.84
2023-04-12T03:43:19.917Z,96736.25
2023-04-12T03:45:46.597Z,96720.03
2023-04-12T03:48:13.449Z,96751.53
2023-04-12T03:50:45.125Z,96737.84
2023-04-12T03:53:23.943Z,96742.44
2023-04-12T03:55:50.628Z,96749.28
2023-04-12T03:58:19.083Z,96743.38
2023-04-12T04:00:46.890Z,96736.25
2023-04-12T04:03:13.689Z,96735.44
2023-04-12T04:05:40.812Z,96736.41
2023-04-12T04:08:08.475Z,96730.34
2023-04-12T04:10:35.404Z,96722.41
2023-04-12T04:13:02.206Z,96740.22
2023-04-12T04:15:28.983Z,96737.50
2023-04-12T04:17:55.803Z,96746.59
2023-04-12T04:20:22.541Z,96738.78
2023-04-12T04:22:49.207Z,96742.13
2023-04-12T04:25:16.435Z,96736.88
2023-04-12T04:27:45.015Z,96751.03
2023-04-12T04:30:16.566Z,96757.38
2023-04-12T04:32:43.962Z,96742.13
2023-04-12T04:35:10.712Z,96754.53
2023-04-12T04:37:37.574Z,96749.59
2023-04-12T04:40:14.120Z,96739.91
2023-04-12T04:42:41.010Z,96740.19
2023-04-12T04:45:13.993Z,96729.09
2023-04-12T04:47:41.272Z,96745.78
2023-04-12T04:50:08.794Z,96750.06
2023-04-12T04:52:37.823Z,96752.63
2023-04-12T04:55:07.370Z,96745.31
2023-04-12T04:57:35.712Z,96753.56
2023-04-12T05:00:11.149Z,96752.94
2023-04-12T05:02:40.457Z,96757.38
2023-04-12T05:05:08.096Z,96765.66
2023-04-12T05:07:34.778Z,96767.09
2023-04-12T05:10:01.550Z,96763.94
2023-04-12T05:12:28.371Z,96768.06
2023-04-12T05:15:08.507Z,96771.06
2023-04-12T05:17:38.347Z,96772.69
2023-04-12T05:20:10.062Z,96756.13
2023-04-12T05:22:36.763Z,96770.59
2023-04-12T05:25:04.351Z,96752.63
2023-04-12T05:27:31.131Z,96769.81
2023-04-12T05:29:58.515Z,96782.06
2023-04-12T05:32:26.437Z,96779.06
2023-04-12T05:34:53.195Z,96777.13
2023-04-12T05:37:19.827Z,96785.09
2023-04-12T05:39:46.486Z,96779.19
2023-04-12T05:42:15.470Z,96781.28
2023-04-12T05:44:42.441Z,96781.44
2023-04-12T05:47:09.196Z,96783.84
2023-04-12T05:49:35.912Z,96744.66
2023-04-12T05:52:05.867Z,96783.50
2023-04-12T05:54:32.610Z,96793.06
2023-04-12T05:57:00.551Z,96785.09
2023-04-12T05:59:27.268Z,96792.88
2023-04-12T06:01:54.211Z,96782.41
2023-04-12T06:04:21.136Z,96788.09
2023-04-12T06:06:47.962Z,96776.16
2023-04-12T06:09:16.988Z,96785.59
2023-04-12T06:11:53.431Z,96767.13
2023-04-12T06:14:20.316Z,96780.94
2023-04-12T06:16:46.996Z,96789.53
2023-04-12T06:19:13.766Z,96743.06
2023-04-12T06:21:41.315Z,96768.25
2023-04-12T06:24:08.218Z,96770.31
2023-04-12T06:26:39.877Z,96750.56
2023-04-12T06:29:07.196Z,96735.16
2023-04-12T06:31:33.988Z,96749.31
2023-04-12T06:34:02.094Z,96727.19
2023-04-12T06:36:28.893Z,96743.25
2023-04-12T06:38:55.867Z,96697.91
2023-04-12T06:41:22.667Z,96755.34
2023-04-12T06:43:49.383Z,96755.19
2023-04-12T06:46:18.786Z,96741.31
2023-04-12T06:48:45.905Z,96763.78
2023-04-12T06:51:12.687Z,96765.03
2023-04-12T06:53:39.419Z,96767.59
2023-04-12T06:56:06.494Z,96775.38
2023-04-12T06:58:33.252Z,96750.09
2023-04-12T07:01:08.430Z,96756.75
2023-04-12T07:03:35.983Z,96767.06
2023-04-12T07:06:10.591Z,96773.63
2023-04-12T07:08:44.410Z,96769.75
2023-04-12T07:11:20.559Z,96765.13
2023-04-12T07:13:49.114Z,96763.38
2023-04-12T07:16:16.106Z,96768.13
2023-04-12T07:18:42.795Z,96756.50
2023-04-12T07:21:09.667Z,96759.19
2023-04-12T07:23:36.616Z,96760.44
2023-04-12T07:26:03.498Z,96756.41
2023-04-12T07:28:30.268Z,96756.69
2023-04-12T07:30:56.944Z,96748.41
2023-04-12T07:33:26.500Z,96757.88
2023-04-12T07:35:53.624Z,96735.22
2023-04-12T07:38:20.566Z,96750.72
2023-04-12T07:40:49.973Z,96726.88
2023-04-12T07:43:16.951Z,96757.25
2023-04-12T07:45:44.105Z,96766.69
2023-04-12T07:48:12.102Z,96769.16
2023-04-12T07:50:39.791Z,96759.28
2023-04-12T07:53:20.551Z,96759.84
2023-04-12T07:55:48.273Z,96735.56
2023-04-12T07:58:16.272Z,96761.38
2023-04-12T08:00:44.105Z,96766.63
2023-04-12T08:03:15.054Z,96770.88
2023-04-12T08:05:42.368Z,96750.69
2023-04-12T08:08:12.445Z,96767.78
2023-04-12T08:10:40.182Z,96761.63
2023-04-12T08:13:07.326Z,96764.31
2023-04-12T08:15:34.186Z,96756.16
2023-04-12T08:18:02.121Z,96727.44
2023-04-12T08:20:29.335Z,96738.41
2023-04-12T08:22:56.336Z,96760.03
2023-04-12T08:25:23.603Z,96763.19
2023-04-12T08:27:51.469Z,96750.47
2023-04-12T08:30:19.004Z,96761.84
2023-04-12T08:32:46.234Z,96753.75
2023-04-12T08:35:15.384Z,96744.03
2023-04-12T08:37:42.330Z,96733.34
2023-04-12T08:40:09.757Z,96727.16
2023-04-12T08:42:38.357Z,96742.34
2023-04-12T08:45:10.076Z,96729.94
2023-04-12T08:47:40.859Z,96735.56
2023-04-12T08:50:09.711Z,96737.41
2023-04-12T08:52:38.225Z,96734.47
2023-04-12T08:55:08.919Z,96735.06
2023-04-12T08:57:37.055Z,96731.03
2023-04-12T09:00:05.054Z,96740.38
2023-04-12T09:02:31.952Z,96719.97
2023-04-12T09:04:59.089Z,96731.25
2023-04-12T09:07:30.818Z,96730.81
2023-04-12T09:09:58.683Z,96729.69
2023-04-12T09:12:25.814Z,96721.34
2023-04-12T09:15:13.765Z,96710.50
2023-04-12T09:17:42.138Z,96731.84
2023-04-12T09:20:18.092Z,96726.09
2023-04-12T09:22:46.935Z,96728.50
2023-04-12T09:25:15.184Z,96728.50
2023-04-12T09:27:48.932Z,96721.47
2023-04-12T09:30:20.784Z,96698.38
2023-04-12T09:32:50.899Z,96714.91
2023-04-12T09:35:17.865Z,96697.50
2023-04-12T09:37:44.715Z,96706.84
2023-04-12T09:40:11.949Z,96700.81
2023-04-12T09:42:53.708Z,96698.94
2023-04-12T09:45:26.197Z,96713.22
2023-04-12T09:47:54.496Z,96711.41
2023-04-12T09:50:23.818Z,96713.53
2023-04-12T09:52:52.844Z,96700.75
2023-04-12T09:55:22.400Z,96665.97
2023-04-12T09:57:51.943Z,96702.00
2023-04-12T10:00:19.571Z,96682.63
2023-04-12T10:02:49.143Z,96689.72
2023-04-12T10:05:20.254Z,96674.59
2023-04-12T10:07:48.183Z,96666.50
2023-04-12T10:10:17.704Z,96662.41
2023-04-12T10:12:47.027Z,96672.94
2023-04-12T10:15:18.016Z,96683.38
2023-04-12T10:17:47.697Z,96679.09
2023-04-12T10:20:17.129Z,96672.28
2023-04-12T10:22:49.050Z,96669.13
2023-04-12T10:25:18.429Z,96676.59
2023-04-12T10:27:47.103Z,96660.03
2023-04-12T10:30:31.605Z,96671.09
2023-04-12T10:33:10.392Z,96670.63
2023-04-12T10:36:01.021Z,96666.28
2023-04-12T10:38:35.846Z,96671.81
2023-04-12T10:41:19.832Z,96673.41
2023-04-12T10:43:51.586Z,96661.38
2023-04-12T10:46:40.123Z,96662.25
2023-04-12T10:49:14.433Z,96658.34
2023-04-12T10:52:03.921Z,96654.03
2023-04-12T10:54:32.680Z,96653.00
2023-04-12T10:56:59.628Z,96629.47
2023-04-12T10:59:31.422Z,96655.31
2023-04-12T11:02:12.806Z,96650.69
2023-04-12T11:05:10.734Z,96638.50
2023-04-12T11:07:45.464Z,96649.06
2023-04-12T11:10:17.012Z,96642.31
2023-04-12T11:12:51.122Z,96641.94
2023-04-12T11:15:18.624Z,96642.47
2023-04-12T11:17:54.585Z,96642.56
2023-04-12T11:20:21.786Z,96631.03
2023-04-12T11:22:50.792Z,96624.53
2023-04-12T11:25:18.462Z,96630.69
2023-04-12T11:27:52.857Z,96638.59
2023-04-12T11:30:20.378Z,96623.56
2023-04-12T11:32:47.954Z,96621.09
2023-04-12T11:35:17.101Z,96615.16
2023-04-12T11:37:45.272Z,96596.38
2023-04-12T11:40:12.273Z,96594.88
2023-04-12T11:42:39.949Z,96603.72
2023-04-12T11:45:15.771Z,96605.66
2023-04-12T11:47:46.662Z,96604.88
2023-04-12T11:50:13.911Z,96613.69
2023-04-12T11:52:41.495Z,96598.28
2023-04-12T11:55:12.140Z,96581.19
2023-04-12T11:57:40.549Z,96587.03
2023-04-12T12:00:13.511Z,96582.91
2023-04-12T12:02:49.335Z,96588.84
2023-04-12T12:05:23.840Z,96588.28
2023-04-12T12:07:53.057Z,96575.06
2023-04-12T12:10:37.744Z,96571.81
2023-04-12T12:13:12.504Z,96569.25
2023-04-12T12:15:39.487Z,96569.00
2023-04-12T12:18:10.014Z,96527.72
2023-04-12T12:20:42.236Z,96569.41
2023-04-12T12:23:09.661Z,96543.56
2023-04-12T12:25:36.758Z,96566.72
2023-04-12T12:28:05.808Z,96561.13
2023-04-12T12:30:40.277Z,96556.19
2023-04-12T12:33:07.247Z,96549.34
2023-04-12T12:35:35.294Z,96553.47
2023-04-12T12:38:07.382Z,96551.38
2023-04-12T12:40:34.244Z,96559.09
2023-04-12T12:43:01.293Z,96549.09
2023-04-12T12:45:29.927Z,96545.78
2023-04-12T12:48:00.642Z,96547.91
2023-04-12T12:50:31.156Z,96544.66
2023-04-12T12:53:00.838Z,96546.44
2023-04-12T12:55:28.783Z,96539.06
2023-04-12T12:58:07.281Z,96544.44
2023-04-12T13:00:36.737Z,96533.19
2023-04-12T13:03:03.919Z,96539.84
2023-04-12T13:05:31.332Z,96527.03
2023-04-12T13:07:58.174Z,96521.59
2023-04-12T13:10:26.757Z,96515.84
2023-04-12T13:12:53.998Z,96510.09
2023-04-12T13:15:23.869Z,96520.88
2023-04-12T13:17:55.077Z,96527.88
2023-04-12T13:20:25.644Z,96506.38
2023-04-12T13:22:52.511Z,96513.53
2023-04-12T13:25:20.483Z,96511.50
2023-04-12T13:27:51.856Z,96511.78
2023-04-12T13:30:20.037Z,96519.75
2023-04-12T13:32:47.362Z,96506.19
2023-04-12T13:35:14.200Z,96488.16
2023-04-12T13:37:41.355Z,96505.41
2023-04-12T13:40:08.929Z,96493.91
2023-04-12T13:42:35.738Z,96450.50
2023-04-12T13:45:02.662Z,96491.13
2023-04-12T13:47:29.427Z,96484.06
2023-04-12T13:49:56.309Z,96495.13
2023-04-12T13:52:23.116Z,96458.25
2023-04-12T13:54:51.550Z,96463.47
2023-04-12T13:57:18.403Z,96451.56
2023-04-12T13:59:45.269Z,96476.09
2023-04-12T14:02:12.113Z,96478.47
2023-04-12T14:04:51.181Z,96487.44
2023-04-12T14:07:18.343Z,96482.59
2023-04-12T14:09:45.218Z,96477.81
2023-04-12T14:12:12.026Z,96477.19
2023-04-12T14:14:38.746Z,96477.03
2023-04-12T14:17:05.631Z,96466.78
2023-04-12T14:19:32.559Z,96478.84
2023-04-12T14:22:00.527Z,96473.81
2023-04-12T14:24:27.400Z,96485.09
2023-04-12T14:26:54.769Z,96462.19
2023-04-12T14:29:21.733Z,96469.28
2023-04-12T14:31:48.538Z,96468.75
2023-04-12T14:34:15.368Z,96464.56
2023-04-12T14:36:42.279Z,96480.34
2023-04-12T14:39:11.727Z,96449.78
2023-04-12T14:41:40.869Z,96464.97
2023-04-12T14:44:07.855Z,96474.97
2023-04-12T14:46:34.762Z,96481.00
2023-04-12T14:49:01.865Z,96468.97
2023-04-12T14:51:30.035Z,96472.63
2023-04-12T14:53:57.669Z,96474.47
2023-04-12T14:56:29.603Z,96481.78
2023-04-12T14:58:57.121Z,96461.72
2023-04-12T15:01:25.431Z,96479.72
2023-04-12T15:03:53.469Z,96471.03
2023-04-12T15:06:23.093Z,96470.66
2023-04-12T15:08:57.494Z,96457.41
2023-04-12T15:11:27.467Z,96460.63
2023-04-12T15:13:55.645Z,96460.13
2023-04-12T15:16:23.447Z,96464.94
2023-04-12T15:18:51.925Z,96462.84
2023-04-12T15:21:19.068Z,96458.31
2023-04-12T15:23:46.296Z,96458.97
2023-04-12T15:26:14.619Z,96453.16
2023-04-12T15:28:42.005Z,96461.38
2023-04-12T15:31:11.414Z,96470.63
2023-04-12T15:33:38.302Z,96471.63
2023-04-12T15:36:06.162Z,96467.22
2023-04-12T15:38:42.321Z,96471.22
2023-04-12T15:41:09.583Z,96452.59
2023-04-12T15:43:36.882Z,96462.03
2023-04-12T15:46:03.870Z,96445.88
2023-04-12T15:48:30.931Z,96449.53
2023-04-12T15:50:57.766Z,96439.63
2023-04-12T15:53:27.654Z,96450.31
2023-04-12T15:55:55.389Z,96431.88
2023-04-12T15:58:23.688Z,96420.75
2023-04-12T16:00:53.195Z,96436.91
2023-04-12T16:03:23.517Z,96441.91
2023-04-12T16:05:53.933Z,96441.81
2023-04-12T16:08:21.501Z,96447.97
2023-04-12T16:10:49.622Z,96433.75
2023-04-12T16:13:16.569Z,96436.13
2023-04-12T16:15:43.546Z,96436.75
2023-04-12T16:18:10.402Z,96438.94
2023-04-12T16:20:37.739Z,96439.50
2023-04-12T16:23:08.062Z,96436.66
2023-04-12T16:25:36.313Z,96427.28
2023-04-12T16:28:03.938Z,96432.53
2023-04-12T16:30:34.449Z,96436.66
2023-04-12T16:33:01.561Z,96437.19
2023-04-12T16:35:28.360Z,96435.75
2023-04-12T16:37:55.483Z,96418.44
2023-04-12T16:40:22.460Z,96433.28
2023-04-12T16:42:49.361Z,96428.88
2023-04-12T16:45:16.601Z,96433.28
2023-04-12T16:47:46.057Z,96432.41
2023-04-12T16:50:13.719Z,96429.56
2023-04-12T16:52:41.732Z,96432.13
2023-04-12T16:55:11.663Z,96420.53
2023-04-12T16:57:40.386Z,96415.25
2023-04-12T17:00:35.293Z,96429.88
2023-04-12T17:03:02.386Z,96420.53
2023-04-12T17:05:29.555Z,96423.06
2023-04-12T17:07:57.687Z,96426.38
2023-04-12T17:10:25.438Z,96407.88
2023-04-12T17:12:54.435Z,96393.97
2023-04-12T17:15:22.241Z,96406.19
2023-04-12T17:17:51.682Z,96410.53
2023-04-12T17:20:22.571Z,96396.63
2023-04-12T17:22:49.938Z,96418.91
2023-04-12T17:25:18.890Z,96395.75
2023-04-12T17:27:47.877Z,96404.09
2023-04-12T17:30:16.947Z,96415.53
2023-04-12T17:32:47.356Z,96415.78
2023-04-12T17:35:14.581Z,96396.09
2023-04-12T17:37:41.933Z,96405.16
2023-04-12T17:40:11.208Z,96408.53
2023-04-12T17:42:41.009Z,96386.28
2023-04-12T17:45:11.391Z,96422.56
2023-04-12T17:47:39.639Z,96427.97
2023-04-12T17:50:14.983Z,96428.31
2023-04-12T17:52:42.602Z,96412.38
2023-04-12T17:55:10.228Z,96417.91
2023-04-12T17:57:37.306Z,96425.13
2023-04-12T18:00:09.644Z,96424.44
2023-04-12T18:02:37.101Z,96412.00
2023-04-12T18:05:05.003Z,96388.69
2023-04-12T18:07:32.554Z,96437.88
2023-04-12T18:09:59.386Z,96432.41
2023-04-12T18:12:26.963Z,96436.25
2023-04-12T18:14:54.123Z,96433.06
2023-04-12T18:17:20.963Z,96436.91
2023-04-12T18:19:47.809Z,96437.75
2023-04-12T18:22:14.627Z,96431.41
2023-04-12T18:24:41.395Z,96431.50
2023-04-12T18:27:08.382Z,96400.16
2023-04-12T18:29:35.235Z,96432.81
2023-04-12T18:32:04.089Z,96422.28
2023-04-12T18:34:31.534Z,96436.75
2023-04-12T18:36:58.687Z,96378.00
2023-04-12T18:39:25.795Z,96424.66
2023-04-12T18:41:52.952Z,96425.53
2023-04-12T18:44:20.508Z,96433.66
2023-04-12T18:46:47.419Z,96410.53
2023-04-12T18:49:15.557Z,96412.13
2023-04-12T18:51:43.271Z,96400.56
2023-04-12T18:54:13.324Z,96401.03
2023-04-12T18:56:42.502Z,96421.03
2023-04-12T18:59:12.224Z,96418.84
2023-04-12T19:01:39.112Z,96402.19
2023-04-12T19:04:06.156Z,96407.28
2023-04-12T19:06:33.403Z,96411.13
2023-04-12T19:09:00.235Z,96404.31
2023-04-12T19:11:27.982Z,96400.00
2023-04-12T19:13:56.476Z,96415.72
2023-04-12T19:16:24.801Z,96415.13
2023-04-12T19:18:51.954Z,96429.72
2023-04-12T19:21:19.034Z,96416.31
2023-04-12T19:23:45.805Z,96407.00
2023-04-12T19:26:13.140Z,96420.88
2023-04-12T19:28:40.358Z,96414.09
2023-04-12T19:31:10.408Z,96395.09
2023-04-12T19:33:37.931Z,96408.34
2023-04-12T19:36:05.313Z,96403.16
2023-04-12T19:38:33.060Z,96407.09
2023-04-12T19:40:59.735Z,96413.31
2023-04-12T19:43:26.537Z,96408.19
2023-04-12T19:45:53.576Z,96398.22
2023-04-12T19:48:20.311Z,96383.34
2023-04-12T19:50:49.945Z,96402.59
2023-04-12T19:53:18.442Z,96398.78
2023-04-12T19:55:45.579Z,96410.97
2023-04-12T19:58:13.694Z,96399.56
2023-04-12T20:00:41.559Z,96401.00
2023-04-12T20:03:09.579Z,96379.47
2023-04-12T20:05:36.838Z,96401.38
2023-04-12T20:08:04.921Z,96382.06
2023-04-12T20:10:33.007Z,96400.16
2023-04-12T20:12:59.830Z,96397.00
2023-04-12T20:15:26.758Z,96383.84
2023-04-12T20:17:53.507Z,96372.91
2023-04-12T20:20:20.575Z,96392.09
2023-04-12T20:22:47.981Z,96394.31
2023-04-12T20:25:15.312Z,96363.91
2023-04-12T20:27:42.715Z,96381.97
2023-04-12T20:30:11.573Z,96394.66
2023-04-12T20:32:38.294Z,96400.81
2023-04-12T20:35:05.498Z,96392.06
2023-04-12T20:37:32.864Z,96406.03
2023-04-12T20:39:59.696Z,96397.47
2023-04-12T20:42:27.087Z,96405.28
2023-04-12T20:44:53.818Z,96394.94
2023-04-12T20:47:21.293Z,96397.19
2023-04-12T20:49:48.321Z,96403.56
2023-04-12T20:52:19.014Z,96387.25
2023-04-12T20:54:48.870Z,96393.94
2023-04-12T20:57:20.965Z,96405.03
2023-04-12T20:59:49.412Z,96395.19
2023-04-12T21:02:17.099Z,96401.84
2023-04-12T21:04:48.141Z,96395.34
2023-04-12T21:07:23.406Z,96392.66
2023-04-12T21:09:51.950Z,96395.97
2023-04-12T21:12:22.967Z,96377.44
2023-04-12T21:14:54.921Z,96394.28
2023-04-12T21:17:22.759Z,96389.38
2023-04-12T21:19:50.492Z,96391.16
2023-04-12T21:22:17.329Z,96405.28
2023-04-12T21:24:44.989Z,96393.69
2023-04-12T21:27:11.638Z,96386.06
2023-04-12T21:29:41.648Z,96400.50
2023-04-12T21:32:09.802Z,96389.09
2023-04-12T21:34:37.625Z,96381.47
2023-04-12T21:37:04.476Z,96377.19
2023-04-12T21:39:32.355Z,96370.34
2023-04-12T21:41:59.342Z,96372.91
2023-04-12T21:44:27.102Z,96386.06
2023-04-12T21:46:56.130Z,96376.84
2023-04-12T21:49:26.128Z,96381.13
2023-04-12T21:51:58.229Z,96374.81
2023-04-12T21:54:42.804Z,96374.59
2023-04-12T21:57:11.534Z,96371.25
2023-04-12T21:59:38.330Z,96372.34
2023-04-12T22:02:05.103Z,96350.44
2023-04-12T22:04:31.964Z,96366.44
2023-04-12T22:06:58.797Z,96362.28
2023-04-12T22:09:25.646Z,96364.91
2023-04-12T22:11:52.370Z,96355.53
2023-04-12T22:14:19.241Z,96258.19
2023-04-12T22:16:46.885Z,96353.28
2023-04-12T22:19:13.844Z,96359.44
2023-04-12T22:21:40.675Z,96355.50
2023-04-12T22:24:08.450Z,96354.38
2023-04-12T22:26:35.109Z,96334.03
2023-04-12T22:29:02.025Z,96349.44
2023-04-12T22:31:38.642Z,96352.13
2023-04-12T22:34:06.338Z,96336.25
2023-04-12T22:36:37.637Z,96354.63
2023-04-12T22:39:04.969Z,96335.13
2023-04-12T22:41:33.848Z,96337.72
2023-04-12T22:44:03.208Z,96338.69
2023-04-12T22:46:33.547Z,96341.19
2023-04-12T22:49:03.476Z,96328.13
2023-04-12T22:51:30.328Z,96325.91
2023-04-12T22:53:57.337Z,96341.94
2023-04-12T22:56:24.239Z,96342.22
2023-04-12T22:58:50.901Z,96346.06
2023-04-12T23:01:19.037Z,96323.72
2023-04-12T23:03:46.047Z,96335.84
2023-04-12T23:06:15.538Z,96329.78
2023-04-12T23:08:43.852Z,96337.75
2023-04-12T23:11:11.298Z,96330.25
2023-04-12T23:13:38.188Z,96321.06
2023-04-12T23:16:05.795Z,96311.56
2023-04-12T23:18:32.977Z,96314.00
2023-04-12T23:21:01.922Z,96281.06
2023-04-12T23:23:28.717Z,96304.06
2023-04-12T23:25:55.624Z,96294.13
2023-04-12T23:28:26.021Z,96283.03
2023-04-12T23:30:52.871Z,96278.75
2023-04-12T23:33:21.466Z,96284.13
2023-04-12T23:35:49.749Z,96259.84
2023-04-12T23:38:23.347Z,96253.72
2023-04-12T23:40:56.542Z,96252.16
2023-04-12T23:43:25.456Z,96249.91
2023-04-12T23:45:53.155Z,96222.78
2023-04-12T23:48:20.000Z,96232.91
2023-04-12T23:50:48.522Z,96241.81
2023-04-12T23:53:16.346Z,96237.66
2023-04-12T23:55:44.103Z,96239.88
2023-04-12T23:58:11.364Z,96238.13
